Sant Feliu de Llobregat, Spain
Current Conditions -  °F | °C
As of 2:30 PM on Saturday 20 Dec 2014 (Local Time) from LEBL Reporting Station
Few Clouds Few Clouds  
Wind Chill: 57°   Ceiling: Unl
Heat Index: 57°   Visibility: 6mi
Dew Point: 46°   Wind: 14mph
Humidity: 67%   Direction: 330°NNW
Pressure: 30.39"   Gusts: NA
Location:  41.38°N, 2.05°E
Report Text: LEBL 201330Z 33012KT 9999 FEW030 14/08 Q1029 NOSIG
Loading
Personal Weather Stations






























Interactive Weather Map New forecast layout! Learn more

10-Day Weather Forecast

Advertisements
Track Severe Weather on mobile